createdAt,value
2022-08-24T00:02:25.664Z,100.00
2022-08-24T00:04:53.395Z,100.00
2022-08-24T00:07:27.171Z,100.00
2022-08-24T00:09:55.636Z,100.00
2022-08-24T00:12:22.439Z,100.00
2022-08-24T00:14:49.487Z,100.00
2022-08-24T00:17:17.180Z,100.00
2022-08-24T00:19:43.841Z,100.00
2022-08-24T00:22:10.511Z,100.00
2022-08-24T00:24:37.067Z,100.00
2022-08-24T00:27:04.469Z,100.00
2022-08-24T00:29:30.938Z,100.00
2022-08-24T00:31:57.464Z,100.00
2022-08-24T00:34:25.291Z,100.00
2022-08-24T00:36:51.816Z,100.00
2022-08-24T00:39:18.544Z,100.00
2022-08-24T00:41:48.367Z,100.00
2022-08-24T00:44:16.771Z,100.00
2022-08-24T00:46:52.371Z,100.00
2022-08-24T00:49:42.127Z,100.00
2022-08-24T00:52:14.232Z,100.00
2022-08-24T00:54:46.627Z,100.00
2022-08-24T00:57:16.724Z,100.00
2022-08-24T00:59:47.936Z,100.00
2022-08-24T01:02:19.274Z,100.00
2022-08-24T01:04:57.986Z,100.00
2022-08-24T01:07:27.060Z,100.00
2022-08-24T01:09:58.060Z,100.00
2022-08-24T01:12:27.950Z,100.00
2022-08-24T01:14:56.400Z,100.00
2022-08-24T01:17:41.919Z,100.00
2022-08-24T01:20:09.420Z,100.00
2022-08-24T01:23:05.500Z,100.00
2022-08-24T01:25:34.807Z,100.00
2022-08-24T01:28:07.866Z,100.00
2022-08-24T01:30:36.413Z,100.00
2022-08-24T01:33:06.452Z,100.00
2022-08-24T01:35:35.292Z,100.00
2022-08-24T01:38:05.718Z,100.00
2022-08-24T01:40:46.734Z,100.00
2022-08-24T01:43:13.584Z,100.00
2022-08-24T01:45:40.104Z,100.00
2022-08-24T01:48:06.592Z,100.00
2022-08-24T01:50:34.009Z,100.00
2022-08-24T01:53:05.885Z,100.00
2022-08-24T01:55:33.344Z,100.00
2022-08-24T01:58:00.800Z,100.00
2022-08-24T02:00:27.823Z,100.00
2022-08-24T02:02:56.540Z,100.00
2022-08-24T02:05:24.141Z,100.00
2022-08-24T02:07:51.865Z,100.00
2022-08-24T02:10:19.390Z,100.00
2022-08-24T02:12:57.627Z,100.00
2022-08-24T02:15:40.012Z,100.00
2022-08-24T02:18:14.839Z,100.00
2022-08-24T02:20:43.076Z,100.00
2022-08-24T02:23:09.602Z,100.00
2022-08-24T02:25:36.168Z,100.00
2022-08-24T02:28:03.887Z,100.00
2022-08-24T02:30:31.070Z,100.00
2022-08-24T02:32:59.030Z,100.00
2022-08-24T02:35:27.115Z,100.00
2022-08-24T02:37:53.581Z,100.00
2022-08-24T02:40:20.570Z,100.00
2022-08-24T02:42:48.126Z,100.00
2022-08-24T02:45:14.665Z,100.00
2022-08-24T02:47:41.215Z,100.00
2022-08-24T02:50:10.963Z,100.00
2022-08-24T02:52:42.123Z,100.00
2022-08-24T02:55:13.729Z,100.00
2022-08-24T02:57:40.224Z,100.00
2022-08-24T03:00:11.334Z,100.00
2022-08-24T03:02:38.654Z,100.00
2022-08-24T03:05:06.006Z,100.00
2022-08-24T03:07:32.579Z,100.00
2022-08-24T03:09:59.540Z,100.00
2022-08-24T03:12:26.011Z,100.00
2022-08-24T03:14:52.505Z,100.00
2022-08-24T03:17:19.212Z,100.00
2022-08-24T03:19:45.715Z,100.00
2022-08-24T03:22:13.175Z,100.00
2022-08-24T03:24:39.766Z,100.00
2022-08-24T03:27:06.364Z,100.00
2022-08-24T03:29:35.735Z,100.00
2022-08-24T03:32:02.498Z,100.00
2022-08-24T03:34:29.029Z,100.00
2022-08-24T03:36:55.523Z,100.00
2022-08-24T03:39:22.020Z,100.00
2022-08-24T03:41:48.543Z,100.00
2022-08-24T03:44:15.121Z,100.00
2022-08-24T03:46:41.764Z,100.00
2022-08-24T03:49:09.965Z,100.00
2022-08-24T03:51:37.576Z,100.00
2022-08-24T03:54:07.355Z,100.00
2022-08-24T03:56:35.113Z,100.00
2022-08-24T03:59:01.591Z,100.00
2022-08-24T04:01:28.242Z,100.00
2022-08-24T04:03:55.283Z,100.00
2022-08-24T04:06:22.750Z,100.00
2022-08-24T04:08:49.696Z,100.00
2022-08-24T04:11:22.972Z,100.00
2022-08-24T04:13:53.256Z,100.00
2022-08-24T04:16:21.402Z,100.00
2022-08-24T04:18:48.150Z,100.00
2022-08-24T04:21:29.791Z,100.00
2022-08-24T04:23:57.269Z,100.00
2022-08-24T04:26:44.528Z,100.00
2022-08-24T04:29:14.761Z,100.00
2022-08-24T04:31:42.760Z,100.00
2022-08-24T04:34:10.262Z,100.00
2022-08-24T04:36:36.827Z,100.00
2022-08-24T04:39:04.406Z,100.00
2022-08-24T04:41:31.876Z,100.00
2022-08-24T04:43:59.416Z,100.00
2022-08-24T04:46:26.454Z,100.00
2022-08-24T04:48:52.915Z,100.00
2022-08-24T04:51:20.342Z,100.00
2022-08-24T04:53:48.183Z,100.00
2022-08-24T04:56:21.459Z,100.00
2022-08-24T04:58:47.962Z,100.00
2022-08-24T05:01:19.361Z,100.00
2022-08-24T05:03:48.735Z,100.00
2022-08-24T05:06:16.773Z,100.00
2022-08-24T05:08:44.017Z,100.00
2022-08-24T05:11:10.609Z,100.00
2022-08-24T05:13:37.959Z,100.00
2022-08-24T05:16:10.953Z,100.00
2022-08-24T05:18:38.324Z,100.00
2022-08-24T05:21:09.703Z,100.00
2022-08-24T05:23:37.566Z,100.00
2022-08-24T05:26:10.457Z,100.00
2022-08-24T05:28:38.530Z,100.00
2022-08-24T05:31:14.146Z,100.00
2022-08-24T05:33:41.298Z,100.00
2022-08-24T05:36:23.261Z,100.00
2022-08-24T05:38:51.868Z,100.00
2022-08-24T05:41:19.229Z,100.00
2022-08-24T05:43:45.947Z,100.00
2022-08-24T05:46:13.627Z,100.00
2022-08-24T05:48:40.227Z,100.00
2022-08-24T05:51:08.653Z,100.00
2022-08-24T05:53:36.159Z,100.00
2022-08-24T05:56:08.244Z,100.00
2022-08-24T05:58:35.119Z,100.00
2022-08-24T06:01:31.626Z,100.00
2022-08-24T06:03:59.317Z,100.00
2022-08-24T06:06:26.800Z,100.00
2022-08-24T06:08:56.405Z,100.00
2022-08-24T06:11:30.659Z,100.00
2022-08-24T06:14:07.232Z,100.00
2022-08-24T06:16:39.472Z,100.00
2022-08-24T06:19:08.347Z,100.00
2022-08-24T06:21:34.966Z,100.00
2022-08-24T06:24:01.720Z,100.00
2022-08-24T06:26:49.107Z,100.00
2022-08-24T06:29:17.893Z,100.00
2022-08-24T06:31:46.707Z,100.00
2022-08-24T06:34:15.291Z,100.00
2022-08-24T06:36:42.023Z,100.00
2022-08-24T06:39:10.098Z,100.00
2022-08-24T06:41:40.339Z,100.00
2022-08-24T06:44:07.920Z,100.00
2022-08-24T06:46:36.475Z,100.00
2022-08-24T06:49:03.097Z,100.00
2022-08-24T06:51:29.683Z,100.00
2022-08-24T06:53:56.202Z,100.00
2022-08-24T06:56:23.045Z,100.00
2022-08-24T06:58:49.696Z,100.00
2022-08-24T07:01:19.648Z,100.00
2022-08-24T07:03:46.633Z,100.00
2022-08-24T07:06:14.284Z,100.00
2022-08-24T07:08:42.356Z,100.00
2022-08-24T07:11:10.539Z,100.00
2022-08-24T07:13:36.999Z,100.00
2022-08-24T07:16:04.648Z,100.00
2022-08-24T07:18:32.657Z,100.00
2022-08-24T07:21:03.736Z,100.00
2022-08-24T07:23:42.198Z,100.00
2022-08-24T07:26:20.998Z,100.00
2022-08-24T07:28:49.638Z,100.00
2022-08-24T07:31:16.433Z,100.00
2022-08-24T07:33:43.031Z,100.00
2022-08-24T07:36:09.658Z,100.00
2022-08-24T07:38:36.220Z,100.00
2022-08-24T07:41:26.624Z,100.00
2022-08-24T07:43:49.524Z,100.00
2022-08-24T07:46:16.011Z,100.00
2022-08-24T07:48:42.508Z,100.00
2022-08-24T07:51:12.273Z,100.00
2022-08-24T07:53:53.074Z,100.00
2022-08-24T07:56:20.686Z,100.00
2022-08-24T07:58:47.431Z,100.00
2022-08-24T08:01:14.145Z,100.00
2022-08-24T08:03:41.648Z,100.00
2022-08-24T08:06:16.140Z,100.00
2022-08-24T08:08:43.083Z,100.00
2022-08-24T08:11:10.232Z,100.00
2022-08-24T08:13:37.325Z,100.00
2022-08-24T08:16:08.046Z,100.00
2022-08-24T08:18:35.990Z,100.00
2022-08-24T08:21:04.290Z,100.00
2022-08-24T08:23:49.447Z,100.00
2022-08-24T08:26:20.438Z,100.00
2022-08-24T08:28:46.926Z,100.00
2022-08-24T08:31:13.828Z,100.00
2022-08-24T08:33:40.421Z,100.00
2022-08-24T08:36:12.230Z,100.00
2022-08-24T08:38:40.511Z,100.00
2022-08-24T08:41:40.555Z,100.00
2022-08-24T08:44:18.025Z,100.00
2022-08-24T08:47:06.212Z,100.00
2022-08-24T08:50:05.297Z,100.00
2022-08-24T08:52:53.743Z,100.00
2022-08-24T08:55:26.397Z,100.00
2022-08-24T08:58:06.491Z,100.00
2022-08-24T09:00:57.901Z,100.00
2022-08-24T09:03:42.099Z,100.00
2022-08-24T09:06:35.799Z,100.00
2022-08-24T09:09:23.975Z,100.00
2022-08-24T09:12:14.279Z,100.00
2022-08-24T09:15:05.453Z,100.00
2022-08-24T09:17:44.996Z,100.00
2022-08-24T09:20:45.398Z,100.00
2022-08-24T09:23:23.934Z,100.00
2022-08-24T09:26:04.940Z,100.00
2022-08-24T09:29:00.265Z,100.00
2022-08-24T09:31:46.009Z,100.00
2022-08-24T09:34:46.100Z,100.00
2022-08-24T09:37:52.185Z,100.00
2022-08-24T09:40:35.639Z,100.00
2022-08-24T09:43:36.633Z,100.00
2022-08-24T09:46:57.824Z,100.00
2022-08-24T09:49:37.136Z,100.00
2022-08-24T09:52:26.934Z,100.00
2022-08-24T09:55:22.548Z,100.00
2022-08-24T09:58:01.561Z,100.00
2022-08-24T10:00:37.086Z,100.00
2022-08-24T10:03:12.474Z,100.00
2022-08-24T10:06:02.672Z,100.00
2022-08-24T10:08:42.706Z,100.00
2022-08-24T10:11:33.585Z,100.00
2022-08-24T10:14:16.928Z,100.00
2022-08-24T10:17:20.264Z,100.00
2022-08-24T10:20:11.366Z,100.00
2022-08-24T10:23:05.688Z,100.00
2022-08-24T10:26:08.866Z,100.00
2022-08-24T10:29:00.001Z,100.00
2022-08-24T10:31:42.610Z,100.00
2022-08-24T10:34:30.907Z,100.00
2022-08-24T10:37:44.853Z,100.00
2022-08-24T10:40:23.298Z,100.00
2022-08-24T10:43:17.035Z,100.00
2022-08-24T10:46:18.716Z,100.00
2022-08-24T10:49:13.539Z,100.00
2022-08-24T10:52:03.675Z,100.00
2022-08-24T10:54:34.088Z,100.00
2022-08-24T10:57:15.191Z,100.00
2022-08-24T10:59:53.883Z,100.00
2022-08-24T11:02:39.123Z,100.00
2022-08-24T11:05:09.458Z,100.00
2022-08-24T11:07:37.996Z,100.00
2022-08-24T11:10:09.968Z,100.00
2022-08-24T11:12:37.757Z,100.00
2022-08-24T11:15:19.003Z,100.00
2022-08-24T11:17:56.853Z,100.00
2022-08-24T11:20:41.165Z,100.00
2022-08-24T11:23:14.860Z,100.00
2022-08-24T11:25:53.146Z,100.00
2022-08-24T11:28:53.380Z,100.00
2022-08-24T11:31:27.256Z,100.00
2022-08-24T11:34:03.708Z,100.00
2022-08-24T11:36:34.861Z,100.00
2022-08-24T11:39:20.381Z,100.00
2022-08-24T11:41:55.910Z,100.00
2022-08-24T11:44:49.919Z,100.00
2022-08-24T11:47:45.014Z,100.00
2022-08-24T11:50:26.765Z,100.00
2022-08-24T11:53:02.994Z,100.00
2022-08-24T11:56:10.079Z,100.00
2022-08-24T11:58:51.390Z,100.00
2022-08-24T12:01:26.061Z,100.00
2022-08-24T12:04:17.132Z,100.00
2022-08-24T12:06:55.815Z,100.00
2022-08-24T12:09:54.960Z,100.00
2022-08-24T12:12:51.278Z,100.00
2022-08-24T12:15:39.725Z,100.00
2022-08-24T12:18:18.581Z,100.00
2022-08-24T12:20:49.553Z,100.00
2022-08-24T12:23:39.792Z,100.00
2022-08-24T12:26:14.429Z,100.00
2022-08-24T12:28:45.866Z,100.00
2022-08-24T12:31:22.159Z,100.00
2022-08-24T12:33:55.963Z,100.00
2022-08-24T12:36:36.075Z,100.00
2022-08-24T12:39:22.251Z,100.00
2022-08-24T12:41:55.428Z,100.00
2022-08-24T12:44:28.857Z,100.00
2022-08-24T12:46:55.594Z,100.00
2022-08-24T12:49:39.041Z,100.00
2022-08-24T12:52:41.411Z,100.00
2022-08-24T12:55:13.973Z,100.00
2022-08-24T12:57:57.561Z,99.92
2022-08-24T13:00:33.483Z,97.88
2022-08-24T13:03:23.620Z,96.74
2022-08-24T13:05:55.150Z,96.56
2022-08-24T13:08:36.080Z,97.46
2022-08-24T13:11:14.608Z,98.49
2022-08-24T13:14:05.590Z,96.44
2022-08-24T13:16:56.793Z,98.35
2022-08-24T13:19:23.185Z,95.33
2022-08-24T13:22:20.735Z,95.28
2022-08-24T13:25:00.417Z,97.92
2022-08-24T13:27:36.006Z,95.82
2022-08-24T13:30:24.661Z,95.44
2022-08-24T13:32:59.944Z,93.51
2022-08-24T13:35:57.628Z,94.26
2022-08-24T13:38:24.258Z,95.27
2022-08-24T13:40:58.676Z,95.63
2022-08-24T13:43:38.226Z,94.27
2022-08-24T13:47:01.679Z,97.93
2022-08-24T13:50:03.795Z,95.83
2022-08-24T13:52:55.116Z,95.40
2022-08-24T13:55:43.678Z,96.05
2022-08-24T13:58:14.421Z,96.26
2022-08-24T14:00:43.951Z,96.21
2022-08-24T14:03:19.470Z,94.72
2022-08-24T14:06:14.304Z,94.92
2022-08-24T14:08:53.292Z,95.84
2022-08-24T14:11:25.733Z,94.66
2022-08-24T14:14:51.304Z,95.70
2022-08-24T14:17:44.690Z,97.00
2022-08-24T14:20:36.701Z,94.81
2022-08-24T14:23:18.379Z,92.43
2022-08-24T14:25:45.703Z,91.59
2022-08-24T14:28:36.426Z,90.95
2022-08-24T14:31:16.463Z,93.27
2022-08-24T14:34:21.548Z,94.50
2022-08-24T14:37:05.807Z,93.03
2022-08-24T14:39:41.363Z,91.22
2022-08-24T14:42:21.175Z,91.04
2022-08-24T14:44:55.789Z,89.79
2022-08-24T14:47:59.074Z,89.95
2022-08-24T14:50:39.843Z,91.25
2022-08-24T14:53:48.196Z,90.58
2022-08-24T14:56:54.351Z,91.65
2022-08-24T14:59:46.075Z,91.39
2022-08-24T15:02:31.371Z,94.00
2022-08-24T15:05:10.156Z,92.60
2022-08-24T15:07:37.226Z,90.78
2022-08-24T15:10:14.743Z,90.69
2022-08-24T15:12:51.097Z,90.48
2022-08-24T15:15:35.504Z,91.03
2022-08-24T15:18:17.583Z,90.42
2022-08-24T15:21:06.415Z,91.15
2022-08-24T15:23:41.983Z,90.72
2022-08-24T15:26:18.274Z,91.53
2022-08-24T15:28:56.363Z,93.01
2022-08-24T15:31:27.158Z,92.87
2022-08-24T15:33:57.726Z,91.41
2022-08-24T15:36:25.143Z,91.12
2022-08-24T15:38:51.784Z,92.79
2022-08-24T15:41:20.402Z,91.76
2022-08-24T15:43:52.152Z,91.85
2022-08-24T15:46:21.750Z,94.68
2022-08-24T15:48:50.592Z,95.66
2022-08-24T15:51:58.219Z,90.90
2022-08-24T15:54:30.594Z,91.76
2022-08-24T15:57:04.707Z,92.42
2022-08-24T15:59:39.201Z,91.24
2022-08-24T16:02:28.619Z,92.33
2022-08-24T16:05:25.188Z,96.47
2022-08-24T16:08:07.568Z,96.91
2022-08-24T16:10:42.098Z,98.45
2022-08-24T16:13:19.034Z,99.05
2022-08-24T16:16:03.011Z,99.22
2022-08-24T16:18:51.584Z,99.99
2022-08-24T16:21:33.893Z,100.00
2022-08-24T16:24:02.838Z,100.00
2022-08-24T16:26:51.935Z,100.00
2022-08-24T16:29:37.037Z,100.00
2022-08-24T16:32:21.181Z,100.00
2022-08-24T16:35:08.140Z,100.00
2022-08-24T16:37:35.186Z,100.00
2022-08-24T16:40:01.695Z,100.00
2022-08-24T16:42:30.540Z,100.00
2022-08-24T16:44:58.919Z,100.00
2022-08-24T16:47:27.916Z,100.00
2022-08-24T16:49:55.216Z,100.00
2022-08-24T16:52:21.844Z,100.00
2022-08-24T16:54:49.627Z,100.00
2022-08-24T16:57:22.904Z,100.00
2022-08-24T16:59:51.867Z,100.00
2022-08-24T17:02:20.026Z,100.00
2022-08-24T17:04:46.548Z,100.00
2022-08-24T17:07:16.763Z,100.00
2022-08-24T17:09:46.033Z,100.00
2022-08-24T17:12:12.780Z,100.00
2022-08-24T17:14:39.582Z,100.00
2022-08-24T17:17:09.527Z,100.00
2022-08-24T17:19:37.133Z,100.00
2022-08-24T17:22:05.303Z,100.00
2022-08-24T17:24:32.784Z,100.00
2022-08-24T17:26:59.726Z,100.00
2022-08-24T17:29:26.363Z,100.00
2022-08-24T17:31:53.242Z,100.00
2022-08-24T17:34:22.032Z,100.00
2022-08-24T17:36:51.055Z,100.00
2022-08-24T17:39:18.547Z,100.00
2022-08-24T17:41:45.085Z,100.00
2022-08-24T17:44:15.184Z,100.00
2022-08-24T17:46:50.527Z,100.00
2022-08-24T17:49:18.322Z,100.00
2022-08-24T17:51:45.651Z,100.00
2022-08-24T17:54:12.726Z,100.00
2022-08-24T17:56:41.248Z,100.00
2022-08-24T17:59:24.911Z,100.00
2022-08-24T18:01:58.877Z,100.00
2022-08-24T18:04:28.151Z,100.00
2022-08-24T18:06:56.367Z,100.00
2022-08-24T18:09:39.999Z,100.00
2022-08-24T18:12:08.767Z,100.00
2022-08-24T18:14:35.619Z,100.00
2022-08-24T18:17:05.479Z,100.00
2022-08-24T18:19:33.872Z,100.00
2022-08-24T18:22:01.909Z,100.00
2022-08-24T18:24:32.387Z,100.00
2022-08-24T18:27:00.358Z,100.00
2022-08-24T18:29:29.302Z,100.00
2022-08-24T18:32:00.291Z,100.00
2022-08-24T18:34:27.173Z,100.00
2022-08-24T18:36:53.732Z,100.00
2022-08-24T18:39:21.119Z,100.00
2022-08-24T18:41:49.481Z,100.00
2022-08-24T18:44:20.003Z,100.00
2022-08-24T18:46:47.891Z,100.00
2022-08-24T18:49:15.383Z,100.00
2022-08-24T18:51:42.971Z,100.00
2022-08-24T18:54:16.616Z,100.00
2022-08-24T18:56:44.798Z,100.00
2022-08-24T18:59:13.851Z,100.00
2022-08-24T19:02:00.480Z,100.00
2022-08-24T19:04:29.516Z,100.00
2022-08-24T19:07:00.257Z,100.00
2022-08-24T19:09:30.734Z,100.00
2022-08-24T19:12:00.294Z,100.00
2022-08-24T19:14:26.861Z,100.00
2022-08-24T19:16:53.346Z,100.00
2022-08-24T19:19:22.341Z,100.00
2022-08-24T19:21:49.262Z,100.00
2022-08-24T19:24:26.325Z,100.00
2022-08-24T19:26:53.734Z,100.00
2022-08-24T19:29:38.853Z,100.00
2022-08-24T19:32:10.155Z,100.00
2022-08-24T19:34:48.195Z,100.00
2022-08-24T19:37:14.736Z,100.00
2022-08-24T19:39:41.230Z,100.00
2022-08-24T19:42:10.967Z,100.00
2022-08-24T19:44:56.732Z,100.00
2022-08-24T19:47:24.154Z,100.00
2022-08-24T19:49:50.947Z,100.00
2022-08-24T19:52:17.572Z,100.00
2022-08-24T19:54:45.279Z,100.00
2022-08-24T19:57:36.950Z,100.00
2022-08-24T20:00:18.796Z,100.00
2022-08-24T20:02:49.990Z,100.00
2022-08-24T20:05:18.639Z,100.00
2022-08-24T20:07:46.487Z,100.00
2022-08-24T20:10:14.053Z,100.00
2022-08-24T20:12:41.587Z,100.00
2022-08-24T20:15:08.979Z,100.00
2022-08-24T20:17:36.361Z,100.00
2022-08-24T20:20:05.604Z,100.00
2022-08-24T20:22:32.173Z,100.00
2022-08-24T20:24:58.765Z,100.00
2022-08-24T20:27:27.667Z,100.00
2022-08-24T20:29:55.068Z,100.00
2022-08-24T20:32:22.043Z,100.00
2022-08-24T20:34:48.621Z,100.00
2022-08-24T20:37:25.334Z,100.00
2022-08-24T20:39:55.379Z,100.00
2022-08-24T20:42:26.889Z,100.00
2022-08-24T20:44:54.695Z,100.00
2022-08-24T20:47:22.210Z,100.00
2022-08-24T20:49:49.776Z,100.00
2022-08-24T20:52:16.317Z,100.00
2022-08-24T20:54:43.260Z,100.00
2022-08-24T20:57:16.912Z,100.00
2022-08-24T20:59:43.836Z,100.00
2022-08-24T21:02:10.363Z,100.00
2022-08-24T21:04:37.676Z,100.00
2022-08-24T21:07:04.408Z,100.00
2022-08-24T21:09:31.101Z,100.00
2022-08-24T21:11:57.604Z,100.00
2022-08-24T21:14:24.059Z,100.00
2022-08-24T21:16:50.656Z,100.00
2022-08-24T21:19:17.833Z,100.00
2022-08-24T21:21:46.715Z,100.00
2022-08-24T21:24:14.519Z,100.00
2022-08-24T21:26:41.364Z,100.00
2022-08-24T21:29:10.107Z,100.00
2022-08-24T21:31:37.265Z,100.00
2022-08-24T21:34:22.332Z,100.00
2022-08-24T21:36:50.480Z,100.00
2022-08-24T21:39:19.385Z,100.00
2022-08-24T21:41:46.061Z,100.00
2022-08-24T21:44:12.543Z,100.00
2022-08-24T21:46:39.549Z,100.00
2022-08-24T21:49:06.649Z,100.00
2022-08-24T21:51:33.392Z,100.00
2022-08-24T21:54:00.063Z,100.00
2022-08-24T21:56:30.321Z,100.00
2022-08-24T21:58:56.856Z,100.00
2022-08-24T22:01:23.389Z,100.00
2022-08-24T22:03:50.102Z,100.00
2022-08-24T22:06:16.867Z,100.00
2022-08-24T22:08:44.000Z,100.00
2022-08-24T22:11:13.058Z,100.00
2022-08-24T22:13:40.395Z,100.00
2022-08-24T22:16:07.399Z,100.00
2022-08-24T22:18:35.335Z,100.00
2022-08-24T22:21:07.694Z,100.00
2022-08-24T22:23:34.301Z,100.00
2022-08-24T22:26:00.972Z,100.00
2022-08-24T22:28:27.532Z,100.00
2022-08-24T22:30:54.090Z,100.00
2022-08-24T22:33:20.676Z,100.00
2022-08-24T22:35:47.189Z,100.00
2022-08-24T22:38:13.713Z,100.00
2022-08-24T22:40:43.044Z,100.00
2022-08-24T22:43:10.350Z,100.00
2022-08-24T22:45:37.346Z,100.00
2022-08-24T22:48:05.004Z,100.00
2022-08-24T22:50:32.631Z,100.00
2022-08-24T22:52:59.430Z,100.00
2022-08-24T22:55:26.015Z,100.00
2022-08-24T22:57:52.466Z,100.00
2022-08-24T23:00:19.373Z,100.00
2022-08-24T23:02:45.927Z,100.00
2022-08-24T23:05:12.422Z,100.00
2022-08-24T23:07:38.880Z,100.00
2022-08-24T23:10:06.664Z,100.00
2022-08-24T23:12:33.333Z,100.00
2022-08-24T23:15:00.173Z,100.00
2022-08-24T23:17:26.727Z,100.00
2022-08-24T23:20:05.387Z,100.00
2022-08-24T23:22:36.076Z,100.00
2022-08-24T23:25:04.538Z,100.00
2022-08-24T23:27:32.933Z,100.00
2022-08-24T23:30:10.591Z,100.00
2022-08-24T23:32:37.141Z,100.00
2022-08-24T23:35:04.441Z,100.00
2022-08-24T23:37:31.136Z,100.00
2022-08-24T23:39:58.412Z,100.00
2022-08-24T23:42:24.975Z,100.00
2022-08-24T23:44:51.908Z,100.00
2022-08-24T23:47:18.402Z,100.00
2022-08-24T23:49:44.867Z,100.00
2022-08-24T23:52:26.855Z,100.00
2022-08-24T23:55:11.568Z,100.00
2022-08-24T23:57:46.407Z,100.00
